sensor_id;sensor_type;location;lat;lon;timestamp;temperature;humidity
41318;DHT22;27067;51.554;7.026;2023-08-31T00:00:11;19.60;99.90
41318;DHT22;27067;51.554;7.026;2023-08-31T00:02:38;19.60;99.90
41318;DHT22;27067;51.554;7.026;2023-08-31T00:05:04;19.60;99.90
41318;DHT22;27067;51.554;7.026;2023-08-31T00:07:30;19.60;99.90
41318;DHT22;27067;51.554;7.026;2023-08-31T00:09:55;19.60;99.90
41318;DHT22;27067;51.554;7.026;2023-08-31T00:12:21;19.60;99.90
41318;DHT22;27067;51.554;7.026;2023-08-31T00:14:49;19.60;99.90
41318;DHT22;27067;51.554;7.026;2023-08-31T00:17:14;19.50;99.90
41318;DHT22;27067;51.554;7.026;2023-08-31T00:19:40;19.50;99.90
41318;DHT22;27067;51.554;7.026;2023-08-31T00:22:05;19.60;99.90
41318;DHT22;27067;51.554;7.026;2023-08-31T00:24:31;19.50;99.90
41318;DHT22;27067;51.554;7.026;2023-08-31T00:26:58;19.50;99.90
41318;DHT22;27067;51.554;7.026;2023-08-31T00:29:24;19.50;99.90
41318;DHT22;27067;51.554;7.026;2023-08-31T00:31:51;19.50;99.90
41318;DHT22;27067;51.554;7.026;2023-08-31T00:34:16;20.20;99.90
41318;DHT22;27067;51.554;7.026;2023-08-31T00:36:43;19.50;99.90
41318;DHT22;27067;51.554;7.026;2023-08-31T00:39:08;19.50;99.90
41318;DHT22;27067;51.554;7.026;2023-08-31T00:41:36;19.50;99.90
41318;DHT22;27067;51.554;7.026;2023-08-31T00:44:01;19.50;99.90
41318;DHT22;27067;51.554;7.026;2023-08-31T00:46:30;19.50;99.90
41318;DHT22;27067;51.554;7.026;2023-08-31T00:48:56;19.50;99.90
41318;DHT22;27067;51.554;7.026;2023-08-31T00:51:23;19.50;99.90
41318;DHT22;27067;51.554;7.026;2023-08-31T00:53:49;19.60;99.90
41318;DHT22;27067;51.554;7.026;2023-08-31T00:56:16;19.60;99.90
41318;DHT22;27067;51.554;7.026;2023-08-31T00:58:42;19.50;99.90
41318;DHT22;27067;51.554;7.026;2023-08-31T01:01:11;19.50;99.90
41318;DHT22;27067;51.554;7.026;2023-08-31T01:11:45;19.50;99.90
41318;DHT22;27067;51.554;7.026;2023-08-31T01:14:15;19.50;99.90
41318;DHT22;27067;51.554;7.026;2023-08-31T01:16:41;19.50;99.90
41318;DHT22;27067;51.554;7.026;2023-08-31T01:19:11;19.50;99.90
41318;DHT22;27067;51.554;7.026;2023-08-31T01:21:41;19.50;99.90
41318;DHT22;27067;51.554;7.026;2023-08-31T01:24:07;19.50;99.90
41318;DHT22;27067;51.554;7.026;2023-08-31T01:26:33;19.50;99.90
41318;DHT22;27067;51.554;7.026;2023-08-31T01:28:59;19.50;99.90
41318;DHT22;27067;51.554;7.026;2023-08-31T01:31:25;19.50;99.90
41318;DHT22;27067;51.554;7.026;2023-08-31T01:33:50;19.50;99.90
41318;DHT22;27067;51.554;7.026;2023-08-31T01:36:17;19.50;99.90
41318;DHT22;27067;51.554;7.026;2023-08-31T01:38:46;19.60;99.90
41318;DHT22;27067;51.554;7.026;2023-08-31T01:41:14;19.60;99.90
41318;DHT22;27067;51.554;7.026;2023-08-31T01:43:42;19.60;99.90
41318;DHT22;27067;51.554;7.026;2023-08-31T01:46:08;19.60;99.90
41318;DHT22;27067;51.554;7.026;2023-08-31T01:48:37;19.50;99.90
41318;DHT22;27067;51.554;7.026;2023-08-31T01:51:03;19.50;99.90
41318;DHT22;27067;51.554;7.026;2023-08-31T01:53:29;19.50;99.90
41318;DHT22;27067;51.554;7.026;2023-08-31T01:55:54;19.50;99.90
41318;DHT22;27067;51.554;7.026;2023-08-31T01:58:20;19.50;99.90
41318;DHT22;27067;51.554;7.026;2023-08-31T02:00:45;19.60;99.90
41318;DHT22;27067;51.554;7.026;2023-08-31T02:03:11;19.60;99.90
41318;DHT22;27067;51.554;7.026;2023-08-31T02:05:36;19.60;99.90
41318;DHT22;27067;51.554;7.026;2023-08-31T02:08:02;19.50;99.90
41318;DHT22;27067;51.554;7.026;2023-08-31T02:10:27;19.50;99.90
41318;DHT22;27067;51.554;7.026;2023-08-31T02:12:54;19.50;99.90
41318;DHT22;27067;51.554;7.026;2023-08-31T02:15:20;19.50;99.90
41318;DHT22;27067;51.554;7.026;2023-08-31T02:17:45;19.50;99.90
41318;DHT22;27067;51.554;7.026;2023-08-31T02:20:11;19.50;99.90
41318;DHT22;27067;51.554;7.026;2023-08-31T02:22:39;19.50;99.90
41318;DHT22;27067;51.554;7.026;2023-08-31T02:25:05;19.50;99.90
41318;DHT22;27067;51.554;7.026;2023-08-31T02:27:31;19.50;99.90
41318;DHT22;27067;51.554;7.026;2023-08-31T02:29:56;19.50;99.90
41318;DHT22;27067;51.554;7.026;2023-08-31T02:32:22;19.50;99.90
41318;DHT22;27067;51.554;7.026;2023-08-31T02:34:48;19.50;99.90
41318;DHT22;27067;51.554;7.026;2023-08-31T02:37:13;19.50;99.90
41318;DHT22;27067;51.554;7.026;2023-08-31T02:39:39;19.50;99.90
41318;DHT22;27067;51.554;7.026;2023-08-31T02:42:05;19.50;99.90
41318;DHT22;27067;51.554;7.026;2023-08-31T02:44:31;19.50;99.90
41318;DHT22;27067;51.554;7.026;2023-08-31T02:46:57;19.50;99.90
41318;DHT22;27067;51.554;7.026;2023-08-31T02:49:22;19.50;99.90
41318;DHT22;27067;51.554;7.026;2023-08-31T02:51:48;19.20;99.90
41318;DHT22;27067;51.554;7.026;2023-08-31T02:54:14;19.50;99.90
41318;DHT22;27067;51.554;7.026;2023-08-31T02:56:40;19.50;99.90
41318;DHT22;27067;51.554;7.026;2023-08-31T02:59:05;19.50;99.90
41318;DHT22;27067;51.554;7.026;2023-08-31T03:01:31;20.40;99.90
41318;DHT22;27067;51.554;7.026;2023-08-31T03:03:56;19.50;99.90
41318;DHT22;27067;51.554;7.026;2023-08-31T03:06:22;19.40;99.90
41318;DHT22;27067;51.554;7.026;2023-08-31T03:08:47;19.50;99.90
41318;DHT22;27067;51.554;7.026;2023-08-31T03:11:13;19.50;99.90
41318;DHT22;27067;51.554;7.026;2023-08-31T03:13:41;19.50;99.90
41318;DHT22;27067;51.554;7.026;2023-08-31T03:16:07;19.40;99.90
41318;DHT22;27067;51.554;7.026;2023-08-31T03:18:33;19.40;99.90
41318;DHT22;27067;51.554;7.026;2023-08-31T03:20:58;19.40;99.90
41318;DHT22;27067;51.554;7.026;2023-08-31T03:23:24;19.40;99.90
41318;DHT22;27067;51.554;7.026;2023-08-31T03:25:50;19.50;99.90
41318;DHT22;27067;51.554;7.026;2023-08-31T03:28:15;19.40;99.90
41318;DHT22;27067;51.554;7.026;2023-08-31T03:30:41;19.40;99.90
41318;DHT22;27067;51.554;7.026;2023-08-31T03:33:06;19.40;99.90
41318;DHT22;27067;51.554;7.026;2023-08-31T03:35:32;19.40;99.90
41318;DHT22;27067;51.554;7.026;2023-08-31T03:37:58;19.40;99.90
41318;DHT22;27067;51.554;7.026;2023-08-31T03:40:23;19.40;99.90
41318;DHT22;27067;51.554;7.026;2023-08-31T03:42:49;19.40;99.90
41318;DHT22;27067;51.554;7.026;2023-08-31T03:45:15;19.40;99.90
41318;DHT22;27067;51.554;7.026;2023-08-31T03:47:40;19.40;99.90
41318;DHT22;27067;51.554;7.026;2023-08-31T03:50:06;19.40;99.90
41318;DHT22;27067;51.554;7.026;2023-08-31T03:52:35;19.40;99.90
41318;DHT22;27067;51.554;7.026;2023-08-31T03:55:00;19.40;99.90
41318;DHT22;27067;51.554;7.026;2023-08-31T03:57:26;19.40;99.90
41318;DHT22;27067;51.554;7.026;2023-08-31T03:59:52;19.40;99.90
41318;DHT22;27067;51.554;7.026;2023-08-31T04:02:17;19.40;99.90
41318;DHT22;27067;51.554;7.026;2023-08-31T04:04:43;19.40;99.90
41318;DHT22;27067;51.554;7.026;2023-08-31T04:07:08;19.40;99.90
41318;DHT22;27067;51.554;7.026;2023-08-31T04:09:34;19.40;99.90
41318;DHT22;27067;51.554;7.026;2023-08-31T04:11:59;19.30;99.90
41318;DHT22;27067;51.554;7.026;2023-08-31T04:14:28;19.30;99.90
41318;DHT22;27067;51.554;7.026;2023-08-31T04:16:54;19.30;99.90
41318;DHT22;27067;51.554;7.026;2023-08-31T04:19:19;19.30;99.90
41318;DHT22;27067;51.554;7.026;2023-08-31T04:21:45;19.30;99.90
41318;DHT22;27067;51.554;7.026;2023-08-31T04:24:10;19.30;99.90
41318;DHT22;27067;51.554;7.026;2023-08-31T04:26:36;19.30;99.90
41318;DHT22;27067;51.554;7.026;2023-08-31T04:29:02;19.30;99.90
41318;DHT22;27067;51.554;7.026;2023-08-31T04:31:28;19.30;99.90
41318;DHT22;27067;51.554;7.026;2023-08-31T04:33:54;19.30;99.90
41318;DHT22;27067;51.554;7.026;2023-08-31T04:36:20;19.30;99.90
41318;DHT22;27067;51.554;7.026;2023-08-31T04:38:46;19.30;99.90
41318;DHT22;27067;51.554;7.026;2023-08-31T04:41:12;19.30;99.90
41318;DHT22;27067;51.554;7.026;2023-08-31T04:43:38;19.30;99.90
41318;DHT22;27067;51.554;7.026;2023-08-31T04:46:04;19.30;99.90
41318;DHT22;27067;51.554;7.026;2023-08-31T04:48:29;19.30;99.90
41318;DHT22;27067;51.554;7.026;2023-08-31T04:50:56;19.30;99.90
41318;DHT22;27067;51.554;7.026;2023-08-31T04:53:22;19.30;99.90
41318;DHT22;27067;51.554;7.026;2023-08-31T04:55:47;19.30;99.90
41318;DHT22;27067;51.554;7.026;2023-08-31T04:58:13;19.30;99.90
41318;DHT22;27067;51.554;7.026;2023-08-31T05:00:38;19.30;99.90
41318;DHT22;27067;51.554;7.026;2023-08-31T05:03:04;19.30;99.90
41318;DHT22;27067;51.554;7.026;2023-08-31T05:05:30;19.20;99.90
41318;DHT22;27067;51.554;7.026;2023-08-31T05:07:55;19.30;99.90
41318;DHT22;27067;51.554;7.026;2023-08-31T05:10:21;19.30;99.90
41318;DHT22;27067;51.554;7.026;2023-08-31T05:12:46;19.20;99.90
41318;DHT22;27067;51.554;7.026;2023-08-31T05:15:12;19.20;99.90
41318;DHT22;27067;51.554;7.026;2023-08-31T05:17:38;19.20;99.90
41318;DHT22;27067;51.554;7.026;2023-08-31T05:20:03;19.20;99.90
41318;DHT22;27067;51.554;7.026;2023-08-31T05:22:30;19.20;99.90
41318;DHT22;27067;51.554;7.026;2023-08-31T05:24:55;19.20;99.90
41318;DHT22;27067;51.554;7.026;2023-08-31T05:27:21;19.20;99.90
41318;DHT22;27067;51.554;7.026;2023-08-31T05:29:46;19.20;99.90
41318;DHT22;27067;51.554;7.026;2023-08-31T05:32:12;19.20;99.90
41318;DHT22;27067;51.554;7.026;2023-08-31T05:34:37;19.20;99.90
41318;DHT22;27067;51.554;7.026;2023-08-31T05:37:05;19.20;99.90
41318;DHT22;27067;51.554;7.026;2023-08-31T05:39:30;19.20;99.90
41318;DHT22;27067;51.554;7.026;2023-08-31T05:41:56;19.20;99.90
41318;DHT22;27067;51.554;7.026;2023-08-31T05:44:22;19.10;99.90
41318;DHT22;27067;51.554;7.026;2023-08-31T05:46:47;19.10;99.90
41318;DHT22;27067;51.554;7.026;2023-08-31T05:49:13;19.10;99.90
41318;DHT22;27067;51.554;7.026;2023-08-31T05:51:38;19.10;99.90
41318;DHT22;27067;51.554;7.026;2023-08-31T05:54:04;19.10;99.90
41318;DHT22;27067;51.554;7.026;2023-08-31T05:56:30;19.10;99.90
41318;DHT22;27067;51.554;7.026;2023-08-31T05:58:55;19.10;99.90
41318;DHT22;27067;51.554;7.026;2023-08-31T06:01:21;19.10;99.90
41318;DHT22;27067;51.554;7.026;2023-08-31T06:03:49;19.10;99.90
41318;DHT22;27067;51.554;7.026;2023-08-31T06:06:15;19.10;99.90
41318;DHT22;27067;51.554;7.026;2023-08-31T06:08:40;19.10;99.90
41318;DHT22;27067;51.554;7.026;2023-08-31T06:11:08;19.00;99.90
41318;DHT22;27067;51.554;7.026;2023-08-31T06:13:34;19.10;99.90
41318;DHT22;27067;51.554;7.026;2023-08-31T06:15:59;19.10;99.90
41318;DHT22;27067;51.554;7.026;2023-08-31T06:18:25;19.10;99.90
41318;DHT22;27067;51.554;7.026;2023-08-31T06:20:51;19.10;99.90
41318;DHT22;27067;51.554;7.026;2023-08-31T06:23:17;19.10;99.90
41318;DHT22;27067;51.554;7.026;2023-08-31T06:25:43;19.10;99.90
41318;DHT22;27067;51.554;7.026;2023-08-31T06:28:10;19.10;99.90
41318;DHT22;27067;51.554;7.026;2023-08-31T06:30:36;19.10;99.90
41318;DHT22;27067;51.554;7.026;2023-08-31T06:33:02;19.10;99.90
41318;DHT22;27067;51.554;7.026;2023-08-31T06:35:27;19.10;99.90
41318;DHT22;27067;51.554;7.026;2023-08-31T06:37:53;19.20;99.90
41318;DHT22;27067;51.554;7.026;2023-08-31T06:40:21;19.20;99.90
41318;DHT22;27067;51.554;7.026;2023-08-31T06:42:46;19.20;99.90
41318;DHT22;27067;51.554;7.026;2023-08-31T06:45:12;19.20;99.90
41318;DHT22;27067;51.554;7.026;2023-08-31T06:47:37;18.50;99.90
41318;DHT22;27067;51.554;7.026;2023-08-31T06:50:03;19.10;99.90
41318;DHT22;27067;51.554;7.026;2023-08-31T06:52:29;19.10;99.90
41318;DHT22;27067;51.554;7.026;2023-08-31T06:54:54;19.10;99.90
41318;DHT22;27067;51.554;7.026;2023-08-31T06:57:24;19.10;99.90
41318;DHT22;27067;51.554;7.026;2023-08-31T06:59:50;19.10;99.90
41318;DHT22;27067;51.554;7.026;2023-08-31T07:02:16;19.10;99.90
41318;DHT22;27067;51.554;7.026;2023-08-31T07:04:41;19.10;99.90
41318;DHT22;27067;51.554;7.026;2023-08-31T07:07:07;19.10;99.90
41318;DHT22;27067;51.554;7.026;2023-08-31T07:09:34;19.10;99.90
41318;DHT22;27067;51.554;7.026;2023-08-31T07:11:59;19.10;99.90
41318;DHT22;27067;51.554;7.026;2023-08-31T07:14:26;19.10;99.90
41318;DHT22;27067;51.554;7.026;2023-08-31T07:16:52;19.10;99.90
41318;DHT22;27067;51.554;7.026;2023-08-31T07:19:17;19.10;99.90
41318;DHT22;27067;51.554;7.026;2023-08-31T07:21:43;19.10;99.90
41318;DHT22;27067;51.554;7.026;2023-08-31T07:24:08;19.10;99.90
41318;DHT22;27067;51.554;7.026;2023-08-31T07:26:34;19.00;99.90
41318;DHT22;27067;51.554;7.026;2023-08-31T07:29:00;19.00;99.90
41318;DHT22;27067;51.554;7.026;2023-08-31T07:31:29;19.00;99.90
41318;DHT22;27067;51.554;7.026;2023-08-31T07:33:55;19.00;99.90
41318;DHT22;27067;51.554;7.026;2023-08-31T07:36:20;19.00;99.90
41318;DHT22;27067;51.554;7.026;2023-08-31T07:38:46;19.00;99.90
41318;DHT22;27067;51.554;7.026;2023-08-31T07:41:11;19.00;99.90
41318;DHT22;27067;51.554;7.026;2023-08-31T07:43:37;19.00;99.90
41318;DHT22;27067;51.554;7.026;2023-08-31T07:46:02;19.00;99.90
41318;DHT22;27067;51.554;7.026;2023-08-31T07:48:28;19.00;99.90
41318;DHT22;27067;51.554;7.026;2023-08-31T07:50:54;19.00;99.90
41318;DHT22;27067;51.554;7.026;2023-08-31T07:53:20;19.00;99.90
41318;DHT22;27067;51.554;7.026;2023-08-31T07:55:55;19.00;99.90
41318;DHT22;27067;51.554;7.026;2023-08-31T07:58:22;19.00;99.90
41318;DHT22;27067;51.554;7.026;2023-08-31T08:00:48;19.00;99.90
41318;DHT22;27067;51.554;7.026;2023-08-31T08:03:13;19.00;99.90
41318;DHT22;27067;51.554;7.026;2023-08-31T08:05:39;19.00;99.90
41318;DHT22;27067;51.554;7.026;2023-08-31T08:08:06;19.00;99.90
41318;DHT22;27067;51.554;7.026;2023-08-31T08:10:31;19.00;99.90
41318;DHT22;27067;51.554;7.026;2023-08-31T08:12:57;19.00;99.90
41318;DHT22;27067;51.554;7.026;2023-08-31T08:15:22;18.90;99.90
41318;DHT22;27067;51.554;7.026;2023-08-31T08:17:48;18.90;99.90
41318;DHT22;27067;51.554;7.026;2023-08-31T08:20:13;18.80;99.90
41318;DHT22;27067;51.554;7.026;2023-08-31T08:22:39;18.90;99.90
41318;DHT22;27067;51.554;7.026;2023-08-31T08:25:04;18.80;99.90
41318;DHT22;27067;51.554;7.026;2023-08-31T08:27:31;18.80;99.90
41318;DHT22;27067;51.554;7.026;2023-08-31T08:30:00;18.80;99.90
41318;DHT22;27067;51.554;7.026;2023-08-31T08:32:26;18.80;99.90
41318;DHT22;27067;51.554;7.026;2023-08-31T08:34:52;18.90;99.90
41318;DHT22;27067;51.554;7.026;2023-08-31T08:37:17;18.90;99.90
41318;DHT22;27067;51.554;7.026;2023-08-31T08:39:43;18.90;99.90
41318;DHT22;27067;51.554;7.026;2023-08-31T08:42:09;18.90;99.90
41318;DHT22;27067;51.554;7.026;2023-08-31T08:44:35;18.90;99.90
41318;DHT22;27067;51.554;7.026;2023-08-31T08:47:01;18.90;99.90
41318;DHT22;27067;51.554;7.026;2023-08-31T08:49:27;18.90;99.90
41318;DHT22;27067;51.554;7.026;2023-08-31T08:51:53;18.90;99.90
41318;DHT22;27067;51.554;7.026;2023-08-31T08:54:19;18.90;99.90
41318;DHT22;27067;51.554;7.026;2023-08-31T08:56:45;18.90;99.90
41318;DHT22;27067;51.554;7.026;2023-08-31T08:59:11;18.90;99.90
41318;DHT22;27067;51.554;7.026;2023-08-31T09:01:38;18.90;99.90
41318;DHT22;27067;51.554;7.026;2023-08-31T09:04:04;18.90;99.90
41318;DHT22;27067;51.554;7.026;2023-08-31T09:06:30;18.90;99.90
41318;DHT22;27067;51.554;7.026;2023-08-31T09:08:55;18.90;99.90
41318;DHT22;27067;51.554;7.026;2023-08-31T09:11:22;18.90;99.90
41318;DHT22;27067;51.554;7.026;2023-08-31T09:13:47;18.90;99.90
41318;DHT22;27067;51.554;7.026;2023-08-31T09:16:26;18.90;99.90
41318;DHT22;27067;51.554;7.026;2023-08-31T09:18:54;18.90;99.90
41318;DHT22;27067;51.554;7.026;2023-08-31T09:21:19;18.90;99.90
41318;DHT22;27067;51.554;7.026;2023-08-31T09:23:57;18.90;99.90
41318;DHT22;27067;51.554;7.026;2023-08-31T09:26:23;18.90;99.90
41318;DHT22;27067;51.554;7.026;2023-08-31T09:28:49;18.90;99.90
41318;DHT22;27067;51.554;7.026;2023-08-31T09:31:14;18.90;99.90
41318;DHT22;27067;51.554;7.026;2023-08-31T09:33:42;18.90;99.90
41318;DHT22;27067;51.554;7.026;2023-08-31T09:36:14;18.90;99.90
41318;DHT22;27067;51.554;7.026;2023-08-31T09:38:43;18.90;99.90
41318;DHT22;27067;51.554;7.026;2023-08-31T09:41:09;18.90;99.90
41318;DHT22;27067;51.554;7.026;2023-08-31T09:43:34;18.90;99.90
41318;DHT22;27067;51.554;7.026;2023-08-31T09:46:00;19.00;99.90
41318;DHT22;27067;51.554;7.026;2023-08-31T09:48:28;19.00;99.90
41318;DHT22;27067;51.554;7.026;2023-08-31T09:50:54;18.90;99.90
41318;DHT22;27067;51.554;7.026;2023-08-31T09:53:20;18.90;99.90
41318;DHT22;27067;51.554;7.026;2023-08-31T09:55:46;19.00;99.90
41318;DHT22;27067;51.554;7.026;2023-08-31T09:58:12;18.90;99.90
41318;DHT22;27067;51.554;7.026;2023-08-31T10:00:37;18.90;99.90
41318;DHT22;27067;51.554;7.026;2023-08-31T10:03:04;19.00;99.90
41318;DHT22;27067;51.554;7.026;2023-08-31T10:05:30;18.90;99.90
41318;DHT22;27067;51.554;7.026;2023-08-31T10:07:57;18.90;99.90
41318;DHT22;27067;51.554;7.026;2023-08-31T10:10:22;18.90;99.90
41318;DHT22;27067;51.554;7.026;2023-08-31T10:12:48;18.90;99.90
41318;DHT22;27067;51.554;7.026;2023-08-31T10:15:15;19.00;99.90
41318;DHT22;27067;51.554;7.026;2023-08-31T10:17:41;19.00;99.90
41318;DHT22;27067;51.554;7.026;2023-08-31T10:20:08;18.90;99.90
41318;DHT22;27067;51.554;7.026;2023-08-31T10:22:34;19.00;99.90
41318;DHT22;27067;51.554;7.026;2023-08-31T10:25:00;19.00;99.90
41318;DHT22;27067;51.554;7.026;2023-08-31T10:27:26;19.00;99.90
41318;DHT22;27067;51.554;7.026;2023-08-31T10:29:52;19.00;99.90
41318;DHT22;27067;51.554;7.026;2023-08-31T10:32:18;19.00;99.90
41318;DHT22;27067;51.554;7.026;2023-08-31T10:34:43;19.00;99.90
41318;DHT22;27067;51.554;7.026;2023-08-31T10:37:19;19.00;99.90
41318;DHT22;27067;51.554;7.026;2023-08-31T10:39:44;19.00;99.90
41318;DHT22;27067;51.554;7.026;2023-08-31T10:42:10;19.00;99.90
41318;DHT22;27067;51.554;7.026;2023-08-31T10:44:37;19.00;99.90
41318;DHT22;27067;51.554;7.026;2023-08-31T10:47:05;19.00;99.90
41318;DHT22;27067;51.554;7.026;2023-08-31T10:49:30;19.00;99.90
41318;DHT22;27067;51.554;7.026;2023-08-31T10:52:14;19.00;99.90
41318;DHT22;27067;51.554;7.026;2023-08-31T10:54:40;18.90;99.90
41318;DHT22;27067;51.554;7.026;2023-08-31T10:57:05;19.00;99.90
41318;DHT22;27067;51.554;7.026;2023-08-31T11:02:34;20.00;99.90
41318;DHT22;27067;51.554;7.026;2023-08-31T11:05:07;18.90;99.90
41318;DHT22;27067;51.554;7.026;2023-08-31T11:07:33;18.90;99.90
41318;DHT22;27067;51.554;7.026;2023-08-31T11:10:18;19.00;99.90
41318;DHT22;27067;51.554;7.026;2023-08-31T11:12:48;19.00;99.90
41318;DHT22;27067;51.554;7.026;2023-08-31T11:15:15;18.90;99.90
41318;DHT22;27067;51.554;7.026;2023-08-31T11:17:41;18.90;99.90
41318;DHT22;27067;51.554;7.026;2023-08-31T11:20:07;18.90;99.90
41318;DHT22;27067;51.554;7.026;2023-08-31T11:22:34;19.00;99.90
41318;DHT22;27067;51.554;7.026;2023-08-31T11:25:03;19.00;99.90
41318;DHT22;27067;51.554;7.026;2023-08-31T11:27:29;19.00;99.90
41318;DHT22;27067;51.554;7.026;2023-08-31T11:29:54;19.00;99.90
41318;DHT22;27067;51.554;7.026;2023-08-31T11:32:22;19.00;99.90
41318;DHT22;27067;51.554;7.026;2023-08-31T11:34:48;19.00;99.90
41318;DHT22;27067;51.554;7.026;2023-08-31T11:37:13;19.00;99.90
41318;DHT22;27067;51.554;7.026;2023-08-31T11:39:49;19.00;99.90
41318;DHT22;27067;51.554;7.026;2023-08-31T11:42:15;19.00;99.90
41318;DHT22;27067;51.554;7.026;2023-08-31T11:44:41;19.00;99.90
41318;DHT22;27067;51.554;7.026;2023-08-31T11:47:07;19.00;99.90
41318;DHT22;27067;51.554;7.026;2023-08-31T11:49:32;19.00;99.90
41318;DHT22;27067;51.554;7.026;2023-08-31T11:51:58;19.00;99.90
41318;DHT22;27067;51.554;7.026;2023-08-31T11:54:24;19.00;99.90
41318;DHT22;27067;51.554;7.026;2023-08-31T11:56:50;19.00;99.90
41318;DHT22;27067;51.554;7.026;2023-08-31T11:59:17;19.00;99.90
41318;DHT22;27067;51.554;7.026;2023-08-31T12:01:42;19.00;99.90
41318;DHT22;27067;51.554;7.026;2023-08-31T12:04:15;19.00;99.90
41318;DHT22;27067;51.554;7.026;2023-08-31T12:06:41;19.00;99.90
41318;DHT22;27067;51.554;7.026;2023-08-31T12:09:07;19.00;99.90
41318;DHT22;27067;51.554;7.026;2023-08-31T12:11:33;19.00;99.90
41318;DHT22;27067;51.554;7.026;2023-08-31T12:13:59;19.00;99.90
41318;DHT22;27067;51.554;7.026;2023-08-31T12:16:25;19.00;99.90
41318;DHT22;27067;51.554;7.026;2023-08-31T12:18:58;19.00;99.90
41318;DHT22;27067;51.554;7.026;2023-08-31T12:21:24;19.00;99.90
41318;DHT22;27067;51.554;7.026;2023-08-31T12:23:49;19.00;99.90
41318;DHT22;27067;51.554;7.026;2023-08-31T12:26:15;19.00;99.90
41318;DHT22;27067;51.554;7.026;2023-08-31T12:28:40;19.10;99.90
41318;DHT22;27067;51.554;7.026;2023-08-31T12:31:06;19.10;99.90
41318;DHT22;27067;51.554;7.026;2023-08-31T12:33:31;19.10;99.70
41318;DHT22;27067;51.554;7.026;2023-08-31T12:35:57;19.10;99.70
41318;DHT22;27067;51.554;7.026;2023-08-31T12:38:22;19.10;99.90
41318;DHT22;27067;51.554;7.026;2023-08-31T12:40:48;19.10;99.90
41318;DHT22;27067;51.554;7.026;2023-08-31T12:43:14;19.10;99.90
41318;DHT22;27067;51.554;7.026;2023-08-31T12:45:41;19.10;99.90
41318;DHT22;27067;51.554;7.026;2023-08-31T12:48:06;19.10;99.90
41318;DHT22;27067;51.554;7.026;2023-08-31T12:50:32;19.10;99.90
41318;DHT22;27067;51.554;7.026;2023-08-31T12:52:58;19.10;99.90
41318;DHT22;27067;51.554;7.026;2023-08-31T12:55:24;19.10;99.90
41318;DHT22;27067;51.554;7.026;2023-08-31T12:57:49;19.10;99.90
41318;DHT22;27067;51.554;7.026;2023-08-31T13:00:15;19.10;99.90
41318;DHT22;27067;51.554;7.026;2023-08-31T13:02:41;19.10;99.90
41318;DHT22;27067;51.554;7.026;2023-08-31T13:05:07;19.10;99.90
41318;DHT22;27067;51.554;7.026;2023-08-31T13:07:36;19.10;99.90
41318;DHT22;27067;51.554;7.026;2023-08-31T13:10:02;19.10;99.90
41318;DHT22;27067;51.554;7.026;2023-08-31T13:12:32;19.10;99.90
41318;DHT22;27067;51.554;7.026;2023-08-31T13:14:58;19.10;99.90
41318;DHT22;27067;51.554;7.026;2023-08-31T13:17:23;19.10;99.90
41318;DHT22;27067;51.554;7.026;2023-08-31T13:19:52;19.10;99.90
41318;DHT22;27067;51.554;7.026;2023-08-31T13:22:18;19.10;99.90
41318;DHT22;27067;51.554;7.026;2023-08-31T13:24:44;19.10;99.90
41318;DHT22;27067;51.554;7.026;2023-08-31T13:27:09;19.20;99.90
41318;DHT22;27067;51.554;7.026;2023-08-31T13:29:35;19.20;99.90
41318;DHT22;27067;51.554;7.026;2023-08-31T13:32:01;19.10;99.90
41318;DHT22;27067;51.554;7.026;2023-08-31T13:34:26;19.10;99.90
41318;DHT22;27067;51.554;7.026;2023-08-31T13:36:52;19.10;99.90
41318;DHT22;27067;51.554;7.026;2023-08-31T13:39:17;19.10;99.90
41318;DHT22;27067;51.554;7.026;2023-08-31T13:41:43;19.10;99.90
41318;DHT22;27067;51.554;7.026;2023-08-31T13:44:11;19.10;99.90
41318;DHT22;27067;51.554;7.026;2023-08-31T13:46:36;19.10;99.90
41318;DHT22;27067;51.554;7.026;2023-08-31T13:49:02;19.10;99.90
41318;DHT22;27067;51.554;7.026;2023-08-31T13:51:28;19.10;99.90
41318;DHT22;27067;51.554;7.026;2023-08-31T13:53:53;19.10;99.90
41318;DHT22;27067;51.554;7.026;2023-08-31T13:56:19;19.20;99.90
41318;DHT22;27067;51.554;7.026;2023-08-31T13:58:45;19.20;99.90
41318;DHT22;27067;51.554;7.026;2023-08-31T14:01:10;19.10;99.90
41318;DHT22;27067;51.554;7.026;2023-08-31T14:03:38;19.20;99.90
41318;DHT22;27067;51.554;7.026;2023-08-31T14:06:04;19.10;99.90
41318;DHT22;27067;51.554;7.026;2023-08-31T14:08:29;19.20;99.90
41318;DHT22;27067;51.554;7.026;2023-08-31T14:10:55;19.20;99.90
41318;DHT22;27067;51.554;7.026;2023-08-31T14:13:21;19.10;99.90
41318;DHT22;27067;51.554;7.026;2023-08-31T14:15:47;19.10;99.90
41318;DHT22;27067;51.554;7.026;2023-08-31T14:18:13;19.10;99.90
41318;DHT22;27067;51.554;7.026;2023-08-31T14:20:38;19.10;99.90
41318;DHT22;27067;51.554;7.026;2023-08-31T14:23:04;19.10;99.90
41318;DHT22;27067;51.554;7.026;2023-08-31T14:25:33;19.10;99.90
41318;DHT22;27067;51.554;7.026;2023-08-31T14:27:59;19.10;99.90
41318;DHT22;27067;51.554;7.026;2023-08-31T14:30:24;19.10;99.90
41318;DHT22;27067;51.554;7.026;2023-08-31T14:32:50;19.10;99.90
41318;DHT22;27067;51.554;7.026;2023-08-31T14:35:15;19.10;99.90
41318;DHT22;27067;51.554;7.026;2023-08-31T14:37:41;19.10;99.90
41318;DHT22;27067;51.554;7.026;2023-08-31T14:40:07;19.10;99.90
41318;DHT22;27067;51.554;7.026;2023-08-31T14:42:32;19.10;99.90
41318;DHT22;27067;51.554;7.026;2023-08-31T14:44:59;19.60;99.90
41318;DHT22;27067;51.554;7.026;2023-08-31T14:47:24;19.10;99.90
41318;DHT22;27067;51.554;7.026;2023-08-31T14:49:50;19.10;99.90
41318;DHT22;27067;51.554;7.026;2023-08-31T14:52:15;19.10;99.90
41318;DHT22;27067;51.554;7.026;2023-08-31T14:54:41;19.10;99.90
41318;DHT22;27067;51.554;7.026;2023-08-31T14:57:06;19.10;99.90
41318;DHT22;27067;51.554;7.026;2023-08-31T14:59:32;19.10;99.90
41318;DHT22;27067;51.554;7.026;2023-08-31T15:01:58;19.10;99.90
41318;DHT22;27067;51.554;7.026;2023-08-31T15:04:23;19.10;99.90
41318;DHT22;27067;51.554;7.026;2023-08-31T15:06:49;19.10;99.90
41318;DHT22;27067;51.554;7.026;2023-08-31T15:09:15;19.10;99.90
41318;DHT22;27067;51.554;7.026;2023-08-31T15:11:40;19.10;99.90
41318;DHT22;27067;51.554;7.026;2023-08-31T15:14:06;19.10;99.90
41318;DHT22;27067;51.554;7.026;2023-08-31T15:16:31;19.10;99.90
41318;DHT22;27067;51.554;7.026;2023-08-31T15:18:59;19.10;99.90
41318;DHT22;27067;51.554;7.026;2023-08-31T15:21:24;19.10;99.90
41318;DHT22;27067;51.554;7.026;2023-08-31T15:23:50;19.10;99.90
41318;DHT22;27067;51.554;7.026;2023-08-31T15:26:15;19.10;99.90
41318;DHT22;27067;51.554;7.026;2023-08-31T15:28:43;19.10;99.90
41318;DHT22;27067;51.554;7.026;2023-08-31T15:31:11;19.10;99.90
41318;DHT22;27067;51.554;7.026;2023-08-31T15:33:36;19.10;99.90